createdAt,value
2019-04-07T00:01:56.004Z,54.90
2019-04-07T00:04:28.119Z,55.00
2019-04-07T00:07:00.230Z,54.80
2019-04-07T00:09:32.083Z,54.90
2019-04-07T00:12:03.838Z,54.90
2019-04-07T00:14:36.037Z,54.90
2019-04-07T00:17:08.274Z,54.90
2019-04-07T00:19:40.261Z,54.80
2019-04-07T00:22:11.903Z,54.90
2019-04-07T00:24:44.052Z,54.90
2019-04-07T00:27:15.693Z,54.90
2019-04-07T00:29:47.384Z,54.90
2019-04-07T00:32:19.106Z,54.90
2019-04-07T00:34:50.678Z,55.10
2019-04-07T00:37:22.980Z,55.00
2019-04-07T00:39:54.836Z,55.00
2019-04-07T00:42:27.366Z,55.10
2019-04-07T00:44:59.667Z,55.30
2019-04-07T00:47:31.540Z,55.30
2019-04-07T00:50:03.345Z,55.40
2019-04-07T00:52:39.076Z,55.50
2019-04-07T00:55:11.588Z,55.50
2019-04-07T00:57:44.045Z,55.50
2019-04-07T01:00:17.203Z,55.60
2019-04-07T01:02:49.694Z,55.60
2019-04-07T01:05:33.719Z,55.80
2019-04-07T01:07:55.246Z,56.00
2019-04-07T01:10:27.349Z,56.10
2019-04-07T01:12:59.158Z,56.20
2019-04-07T01:15:30.910Z,56.20
2019-04-07T01:18:02.839Z,56.30
2019-04-07T01:20:39.725Z,56.40
2019-04-07T01:23:11.545Z,56.40
2019-04-07T01:25:43.252Z,56.40
2019-04-07T01:28:15.061Z,56.40
2019-04-07T01:30:46.955Z,56.50
2019-04-07T01:33:18.897Z,56.50
2019-04-07T01:35:51.302Z,56.60
2019-04-07T01:38:23.086Z,56.80
2019-04-07T01:41:15.472Z,56.70
2019-04-07T01:44:07.943Z,56.90
2019-04-07T01:46:50.817Z,56.80
2019-04-07T01:49:58.871Z,56.90
2019-04-07T01:52:36.902Z,57.10
2019-04-07T01:55:35.698Z,57.20
2019-04-07T01:58:27.318Z,57.20
2019-04-07T02:01:20.876Z,57.20
2019-04-07T02:04:00.537Z,57.30
2019-04-07T02:06:53.312Z,57.50
2019-04-07T02:09:40.239Z,57.60
2019-04-07T02:12:52.026Z,57.60
2019-04-07T02:15:47.343Z,57.60
2019-04-07T02:18:32.992Z,57.80
2019-04-07T02:21:23.749Z,58.00
2019-04-07T02:24:16.160Z,58.30
2019-04-07T02:26:54.360Z,58.40
2019-04-07T02:29:46.917Z,59.10
2019-04-07T02:32:40.002Z,58.90
2019-04-07T02:35:45.008Z,59.20
2019-04-07T02:38:44.121Z,59.50
2019-04-07T02:41:35.510Z,60.40
2019-04-07T02:44:28.161Z,60.00
2019-04-07T02:47:27.999Z,60.40
2019-04-07T02:50:20.441Z,61.00
2019-04-07T02:53:07.930Z,61.30
2019-04-07T02:56:03.488Z,61.80
2019-04-07T02:59:12.903Z,62.00
2019-04-07T03:02:17.797Z,62.70
2019-04-07T03:05:06.757Z,63.10
2019-04-07T03:07:48.981Z,63.60
2019-04-07T03:10:36.460Z,63.90
2019-04-07T03:13:31.531Z,64.30
2019-04-07T03:16:26.272Z,64.80
2019-04-07T03:19:04.816Z,65.20
2019-04-07T03:21:42.714Z,65.70
2019-04-07T03:24:41.235Z,66.20
2019-04-07T03:27:32.228Z,66.40
2019-04-07T03:30:24.767Z,66.90
2019-04-07T03:33:22.764Z,67.30
2019-04-07T03:36:10.758Z,67.10
2019-04-07T03:39:08.662Z,67.30
2019-04-07T03:42:12.570Z,67.40
2019-04-07T03:44:59.667Z,67.30
2019-04-07T03:47:42.001Z,67.30
2019-04-07T03:50:37.605Z,67.30
2019-04-07T03:53:26.455Z,67.30
2019-04-07T03:56:28.452Z,67.30
2019-04-07T03:59:18.585Z,67.40
2019-04-07T04:02:10.956Z,67.50
2019-04-07T04:05:10.565Z,67.50
2019-04-07T04:07:55.518Z,67.40
2019-04-07T04:10:43.766Z,67.60
2019-04-07T04:13:30.674Z,67.40
2019-04-07T04:16:10.546Z,67.80
2019-04-07T04:18:42.644Z,67.70
2019-04-07T04:21:14.359Z,67.60
2019-04-07T04:23:46.114Z,67.20
2019-04-07T04:26:17.890Z,67.10
2019-04-07T04:28:49.695Z,67.10
2019-04-07T04:31:21.715Z,67.10
2019-04-07T04:33:54.430Z,67.00
2019-04-07T04:36:27.289Z,66.70
2019-04-07T04:38:59.602Z,66.60
2019-04-07T04:41:32.944Z,66.70
2019-04-07T04:44:04.874Z,66.70
2019-04-07T04:46:37.240Z,66.40
2019-04-07T04:49:09.119Z,66.10
2019-04-07T04:51:41.119Z,66.00
2019-04-07T04:54:12.962Z,65.80
2019-04-07T04:56:44.898Z,65.80
2019-04-07T04:59:17.046Z,65.90
2019-04-07T05:01:53.837Z,65.60
2019-04-07T05:04:25.981Z,65.40
2019-04-07T05:06:59.350Z,65.30
2019-04-07T05:09:42.157Z,65.30
2019-04-07T05:12:06.838Z,65.10
2019-04-07T05:14:38.830Z,64.60
2019-04-07T05:17:10.817Z,64.80
2019-04-07T05:19:44.350Z,64.70
2019-04-07T05:22:17.934Z,64.70
2019-04-07T05:24:50.377Z,64.70
2019-04-07T05:27:22.871Z,64.50
2019-04-07T05:29:55.590Z,63.90
2019-04-07T05:32:27.450Z,63.40
2019-04-07T05:34:59.992Z,63.00
2019-04-07T05:37:31.963Z,62.30
2019-04-07T05:40:04.691Z,61.90
2019-04-07T05:42:36.622Z,61.80
2019-04-07T05:45:10.003Z,61.50
2019-04-07T05:47:47.337Z,61.50
2019-04-07T05:50:15.733Z,61.50
2019-04-07T05:52:47.634Z,61.60
2019-04-07T05:55:23.474Z,61.60
2019-04-07T05:57:54.516Z,61.70
2019-04-07T06:00:26.452Z,61.70
2019-04-07T06:02:58.410Z,61.60
2019-04-07T06:05:30.250Z,61.40
2019-04-07T06:08:18.731Z,61.30
2019-04-07T06:10:35.771Z,61.20
2019-04-07T06:13:13.025Z,61.00
2019-04-07T06:15:43.036Z,61.00
2019-04-07T06:18:14.991Z,61.90
2019-04-07T06:20:47.550Z,62.50
2019-04-07T06:23:22.754Z,63.30
2019-04-07T06:25:54.635Z,63.60
2019-04-07T06:28:26.755Z,64.00
2019-04-07T06:31:01.373Z,65.20
2019-04-07T06:33:36.673Z,65.50
2019-04-07T06:36:06.704Z,65.60
2019-04-07T06:38:42.567Z,66.20
2019-04-07T06:41:12.632Z,67.00
2019-04-07T06:43:45.184Z,67.30
2019-04-07T06:46:32.022Z,67.40
2019-04-07T06:49:20.898Z,67.30
2019-04-07T06:52:12.105Z,67.10
2019-04-07T06:55:03.421Z,67.00
2019-04-07T06:57:56.138Z,67.20
2019-04-07T07:00:39.858Z,67.10
2019-04-07T07:03:23.812Z,67.10
2019-04-07T07:06:16.470Z,67.00
2019-04-07T07:09:09.401Z,68.00
2019-04-07T07:12:06.151Z,67.00
2019-04-07T07:15:05.598Z,67.10
2019-04-07T07:18:01.096Z,67.80
2019-04-07T07:20:52.677Z,68.10
2019-04-07T07:23:32.263Z,68.30
2019-04-07T07:26:03.509Z,68.70
2019-04-07T07:28:38.025Z,68.70
2019-04-07T07:31:10.037Z,68.40
2019-04-07T07:33:43.654Z,67.70
2019-04-07T07:36:20.636Z,67.40
2019-04-07T07:38:58.986Z,66.80
2019-04-07T07:41:25.720Z,64.60
2019-04-07T07:44:01.617Z,60.80
2019-04-07T07:46:33.316Z,57.20
2019-04-07T07:49:06.047Z,54.60
2019-04-07T07:51:39.502Z,53.20
2019-04-07T07:54:13.902Z,52.10
2019-04-07T07:56:48.694Z,50.20
2019-04-07T07:59:20.748Z,47.90
2019-04-07T08:01:54.530Z,45.50
2019-04-07T08:04:29.092Z,42.90
2019-04-07T08:07:02.633Z,41.00
2019-04-07T08:09:37.022Z,39.50
2019-04-07T08:12:10.437Z,38.30
2019-04-07T08:14:43.756Z,37.80
2019-04-07T08:17:16.215Z,38.10
2019-04-07T08:19:50.242Z,38.20
2019-04-07T08:22:30.640Z,37.80
2019-04-07T08:24:57.824Z,37.00
2019-04-07T08:27:31.226Z,37.00
2019-04-07T08:30:03.814Z,36.90
2019-04-07T08:32:35.557Z,37.20
2019-04-07T08:35:07.946Z,36.80
2019-04-07T08:37:40.496Z,36.80
2019-04-07T08:40:12.999Z,36.40
2019-04-07T08:42:48.320Z,35.70
2019-04-07T08:45:21.086Z,35.90
2019-04-07T08:47:53.713Z,36.80
2019-04-07T08:50:28.523Z,37.20
2019-04-07T08:53:00.201Z,37.30
2019-04-07T08:55:32.050Z,37.00
2019-04-07T08:58:05.609Z,35.90
2019-04-07T09:00:41.704Z,35.80
2019-04-07T09:03:15.923Z,36.10
2019-04-07T09:05:49.125Z,36.40
2019-04-07T09:08:22.736Z,36.40
2019-04-07T09:11:19.785Z,36.30
2019-04-07T09:13:58.829Z,35.80
2019-04-07T09:16:53.837Z,34.80
2019-04-07T09:19:36.078Z,34.20
2019-04-07T09:22:23.432Z,34.10
2019-04-07T09:25:20.413Z,34.50
2019-04-07T09:28:03.598Z,34.30
2019-04-07T09:30:52.500Z,33.50
2019-04-07T09:33:43.234Z,33.10
2019-04-07T09:36:51.615Z,32.60
2019-04-07T09:39:50.727Z,31.80
2019-04-07T09:42:32.263Z,31.90
2019-04-07T09:45:18.491Z,32.80
2019-04-07T09:48:24.024Z,32.90
2019-04-07T09:51:20.747Z,32.80
2019-04-07T09:54:14.871Z,32.60
2019-04-07T09:57:14.195Z,32.30
2019-04-07T09:59:58.265Z,32.00
2019-04-07T10:02:51.528Z,31.90
2019-04-07T10:05:44.612Z,31.40
2019-04-07T10:08:50.986Z,31.00
2019-04-07T10:11:41.787Z,31.10
2019-04-07T10:14:32.478Z,32.20
2019-04-07T10:17:18.272Z,32.70
2019-04-07T10:20:12.390Z,32.40
2019-04-07T10:23:05.596Z,32.10
2019-04-07T10:26:07.313Z,32.60
2019-04-07T10:28:55.355Z,32.80
2019-04-07T10:31:47.862Z,32.40
2019-04-07T10:34:48.432Z,32.80
2019-04-07T10:37:36.768Z,33.10
2019-04-07T10:40:38.961Z,33.00
2019-04-07T10:43:50.356Z,32.70
2019-04-07T10:46:52.096Z,33.70
2019-04-07T10:49:44.323Z,35.20
2019-04-07T10:52:37.700Z,36.30
2019-04-07T10:55:40.615Z,37.90
2019-04-07T10:58:31.325Z,39.30
2019-04-07T11:01:28.513Z,40.40
2019-04-07T11:04:23.975Z,41.00
2019-04-07T11:07:18.643Z,41.20
2019-04-07T11:10:28.791Z,41.10
2019-04-07T11:13:12.278Z,41.40
2019-04-07T11:16:02.400Z,41.20
2019-04-07T11:18:47.213Z,41.10
2019-04-07T11:21:53.007Z,41.40
2019-04-07T11:24:48.649Z,41.60
2019-04-07T11:27:45.068Z,41.70
2019-04-07T11:30:45.887Z,41.90
2019-04-07T11:33:27.792Z,42.20
2019-04-07T11:36:21.512Z,42.10
2019-04-07T11:39:15.660Z,42.10
2019-04-07T11:42:08.574Z,42.10
2019-04-07T11:45:03.616Z,42.10
2019-04-07T11:47:47.069Z,42.60
2019-04-07T11:50:42.391Z,42.90
2019-04-07T11:53:24.170Z,42.90
2019-04-07T11:56:26.154Z,42.70
2019-04-07T11:59:30.734Z,42.50
2019-04-07T12:02:18.509Z,42.00
2019-04-07T12:05:10.289Z,41.50
2019-04-07T12:08:06.160Z,41.10
2019-04-07T12:11:02.127Z,40.50
2019-04-07T12:14:01.674Z,41.10
2019-04-07T12:16:58.462Z,41.00
2019-04-07T12:19:40.469Z,41.30
2019-04-07T12:22:41.716Z,41.70
2019-04-07T12:25:33.340Z,41.70
2019-04-07T12:28:24.504Z,41.60
2019-04-07T12:31:14.983Z,41.40
2019-04-07T12:34:05.028Z,41.10
2019-04-07T12:36:56.125Z,41.00
2019-04-07T12:39:47.310Z,40.90
2019-04-07T12:42:38.554Z,40.70
2019-04-07T12:45:23.590Z,40.80
2019-04-07T12:48:30.666Z,41.00
2019-04-07T12:51:23.508Z,41.00
2019-04-07T12:54:26.634Z,40.80
2019-04-07T12:57:20.691Z,40.80
2019-04-07T13:00:12.457Z,40.70
2019-04-07T13:03:04.610Z,40.70
2019-04-07T13:06:06.413Z,40.70
2019-04-07T13:08:51.983Z,40.80
2019-04-07T13:11:38.465Z,41.10
2019-04-07T13:14:29.803Z,41.00
2019-04-07T13:17:34.274Z,40.90
2019-04-07T13:20:26.788Z,40.60
2019-04-07T13:23:10.093Z,40.60
2019-04-07T13:25:55.010Z,40.40
2019-04-07T13:28:45.971Z,40.40
2019-04-07T13:31:39.522Z,40.20
2019-04-07T13:34:49.719Z,40.00
2019-04-07T13:37:36.744Z,40.30
2019-04-07T13:40:29.564Z,40.40
2019-04-07T13:43:14.750Z,40.70
2019-04-07T13:46:20.642Z,41.30
2019-04-07T13:49:00.760Z,41.60
2019-04-07T13:51:52.514Z,41.40
2019-04-07T13:54:43.715Z,41.30
2019-04-07T13:57:42.865Z,41.30
2019-04-07T14:00:34.027Z,39.90
2019-04-07T14:03:15.608Z,39.40
2019-04-07T14:06:24.767Z,39.40
2019-04-07T14:09:21.166Z,39.40
2019-04-07T14:12:14.319Z,39.50
2019-04-07T14:15:10.524Z,39.70
2019-04-07T14:18:05.861Z,39.80
2019-04-07T14:20:51.454Z,39.70
2019-04-07T14:23:35.356Z,39.90
2019-04-07T14:26:22.306Z,39.50
2019-04-07T14:29:28.038Z,39.40
2019-04-07T14:32:29.511Z,40.00
2019-04-07T14:35:20.904Z,39.60
2019-04-07T14:38:03.780Z,40.00
2019-04-07T14:40:59.894Z,40.00
2019-04-07T14:43:57.615Z,40.00
2019-04-07T14:46:41.249Z,40.00
2019-04-07T14:49:34.356Z,40.30
2019-04-07T14:52:41.065Z,40.90
2019-04-07T14:55:22.673Z,41.30
2019-04-07T14:58:15.299Z,41.80
2019-04-07T15:01:04.879Z,42.00
2019-04-07T15:03:36.357Z,42.40
2019-04-07T15:06:08.745Z,42.80
2019-04-07T15:08:52.559Z,43.40
2019-04-07T15:11:35.811Z,43.70
2019-04-07T15:14:08.522Z,44.10
2019-04-07T15:16:40.275Z,44.20
2019-04-07T15:19:12.024Z,44.30
2019-04-07T15:21:44.160Z,44.50
2019-04-07T15:24:16.557Z,44.70
2019-04-07T15:26:50.096Z,45.00
2019-04-07T15:29:22.113Z,45.20
2019-04-07T15:31:54.451Z,45.20
2019-04-07T15:34:27.394Z,45.20
2019-04-07T15:37:00.119Z,45.10
2019-04-07T15:39:33.135Z,44.80
2019-04-07T15:42:05.215Z,44.70
2019-04-07T15:44:39.322Z,44.50
2019-04-07T15:47:12.224Z,44.80
2019-04-07T15:49:44.236Z,44.90
2019-04-07T15:52:16.359Z,45.30
2019-04-07T15:54:48.977Z,44.40
2019-04-07T15:57:22.775Z,44.10
2019-04-07T15:59:55.083Z,43.90
2019-04-07T16:02:27.548Z,43.40
2019-04-07T16:05:02.332Z,43.00
2019-04-07T16:07:33.169Z,43.00
2019-04-07T16:10:05.876Z,43.10
2019-04-07T16:12:44.816Z,43.20
2019-04-07T16:15:11.308Z,43.30
2019-04-07T16:17:47.128Z,43.50
2019-04-07T16:20:23.121Z,43.80
2019-04-07T16:22:52.656Z,44.00
2019-04-07T16:25:28.200Z,44.10
2019-04-07T16:28:02.264Z,44.20
2019-04-07T16:30:34.457Z,44.30
2019-04-07T16:33:06.361Z,44.30
2019-04-07T16:35:38.446Z,44.40
2019-04-07T16:38:10.467Z,44.10
2019-04-07T16:40:45.633Z,44.10
2019-04-07T16:43:18.938Z,43.50
2019-04-07T16:45:53.460Z,43.50
2019-04-07T16:48:26.922Z,43.50
2019-04-07T16:51:00.717Z,43.70
2019-04-07T16:53:34.504Z,43.80
2019-04-07T16:56:07.479Z,44.10
2019-04-07T16:58:41.691Z,44.20
2019-04-07T17:01:13.229Z,44.40
2019-04-07T17:03:45.316Z,44.50
2019-04-07T17:06:17.848Z,44.50
2019-04-07T17:08:52.900Z,44.70
2019-04-07T17:11:24.723Z,44.70
2019-04-07T17:13:56.963Z,44.70
2019-04-07T17:16:29.078Z,44.80
2019-04-07T17:19:00.965Z,44.80
2019-04-07T17:21:33.186Z,44.90
2019-04-07T17:24:07.662Z,45.10
2019-04-07T17:26:39.350Z,45.30
2019-04-07T17:29:19.111Z,45.40
2019-04-07T17:31:50.845Z,45.40
2019-04-07T17:34:24.424Z,45.60
2019-04-07T17:36:58.739Z,45.60
2019-04-07T17:39:43.906Z,45.70
2019-04-07T17:42:18.403Z,45.70
2019-04-07T17:45:09.691Z,45.80
2019-04-07T17:48:05.591Z,45.90
2019-04-07T17:51:07.213Z,45.80
2019-04-07T17:54:04.711Z,45.90
2019-04-07T17:56:55.325Z,45.90
2019-04-07T17:59:49.111Z,45.90
2019-04-07T18:02:32.622Z,45.90
2019-04-07T18:05:26.528Z,46.00
2019-04-07T18:08:26.344Z,46.20
2019-04-07T18:11:37.878Z,46.30
2019-04-07T18:14:30.139Z,46.40
2019-04-07T18:17:26.848Z,46.30
2019-04-07T18:20:21.816Z,46.70
2019-04-07T18:23:15.914Z,46.60
2019-04-07T18:26:10.703Z,46.80
2019-04-07T18:28:54.041Z,47.10
2019-04-07T18:31:46.887Z,47.40
2019-04-07T18:34:28.829Z,47.60
2019-04-07T18:37:24.721Z,47.80
2019-04-07T18:40:06.725Z,48.10
2019-04-07T18:43:02.158Z,48.30
2019-04-07T18:45:52.639Z,48.60
2019-04-07T18:48:42.800Z,48.90
2019-04-07T18:51:26.208Z,49.10
2019-04-07T18:54:12.393Z,49.30
2019-04-07T18:57:03.955Z,49.40
2019-04-07T19:00:01.265Z,49.60
2019-04-07T19:02:48.174Z,49.80
2019-04-07T19:05:31.573Z,50.00
2019-04-07T19:08:22.985Z,50.10
2019-04-07T19:11:15.512Z,50.30
2019-04-07T19:14:20.304Z,50.50
2019-04-07T19:17:08.459Z,50.50
2019-04-07T19:20:10.811Z,50.70
2019-04-07T19:23:04.360Z,50.80
2019-04-07T19:25:48.436Z,50.90
2019-04-07T19:28:40.876Z,51.00
2019-04-07T19:31:32.088Z,51.20
2019-04-07T19:34:20.613Z,51.40
2019-04-07T19:37:22.427Z,51.50
2019-04-07T19:40:12.367Z,51.70
2019-04-07T19:42:59.662Z,51.90
2019-04-07T19:45:43.841Z,52.00
2019-04-07T19:48:39.104Z,52.00
2019-04-07T19:51:18.495Z,52.10
2019-04-07T19:54:13.581Z,52.30
2019-04-07T19:56:58.573Z,52.40
2019-04-07T20:00:10.953Z,52.50
2019-04-07T20:03:04.225Z,52.50
2019-04-07T20:06:04.866Z,52.50
2019-04-07T20:08:55.854Z,52.70
2019-04-07T20:11:43.715Z,52.50
2019-04-07T20:14:58.611Z,52.40
2019-04-07T20:17:43.115Z,52.20
2019-04-07T20:20:28.804Z,52.10
2019-04-07T20:23:30.604Z,52.10
2019-04-07T20:26:18.567Z,52.10
2019-04-07T20:29:12.079Z,52.30
2019-04-07T20:31:59.274Z,52.50
2019-04-07T20:34:59.057Z,52.70
2019-04-07T20:37:55.058Z,53.30
2019-04-07T20:40:45.787Z,53.60
2019-04-07T20:43:38.826Z,53.80
2019-04-07T20:46:30.140Z,53.90
2019-04-07T20:49:18.805Z,54.10
2019-04-07T20:52:10.938Z,54.20
2019-04-07T20:55:04.816Z,54.40
2019-04-07T20:58:22.115Z,54.60
2019-04-07T21:01:17.503Z,54.70
2019-04-07T21:03:57.850Z,54.80
2019-04-07T21:06:51.073Z,54.80
2019-04-07T21:09:38.541Z,54.90
2019-04-07T21:12:35.150Z,55.10
2019-04-07T21:15:29.595Z,55.90
2019-04-07T21:18:10.977Z,55.50
2019-04-07T21:21:04.576Z,55.80
2019-04-07T21:23:48.003Z,56.00
2019-04-07T21:26:41.068Z,56.20
2019-04-07T21:29:41.355Z,56.40
2019-04-07T21:32:26.875Z,56.50
2019-04-07T21:35:25.816Z,56.70
2019-04-07T21:38:19.681Z,56.80
2019-04-07T21:41:19.868Z,56.90
2019-04-07T21:44:09.148Z,57.10
2019-04-07T21:47:05.003Z,57.20
2019-04-07T21:49:58.422Z,57.30
2019-04-07T21:52:47.485Z,57.50
2019-04-07T21:55:41.984Z,57.80
2019-04-07T21:58:40.569Z,57.80
2019-04-07T22:01:26.896Z,57.80
2019-04-07T22:04:21.052Z,58.00
2019-04-07T22:07:05.703Z,58.10
2019-04-07T22:09:48.646Z,58.20
2019-04-07T22:12:20.493Z,58.40
2019-04-07T22:14:52.765Z,58.40
2019-04-07T22:17:24.625Z,58.60
2019-04-07T22:19:56.538Z,58.60
2019-04-07T22:22:29.071Z,58.80
2019-04-07T22:25:06.084Z,59.00
2019-04-07T22:27:35.696Z,59.20
2019-04-07T22:30:09.852Z,59.20
2019-04-07T22:32:42.873Z,59.20
2019-04-07T22:35:14.785Z,59.30
2019-04-07T22:37:49.711Z,59.60
2019-04-07T22:40:21.373Z,59.70
2019-04-07T22:42:54.102Z,59.90
2019-04-07T22:45:29.312Z,60.10
2019-04-07T22:47:59.502Z,60.40
2019-04-07T22:50:35.354Z,60.40
2019-04-07T22:53:04.903Z,60.60
2019-04-07T22:55:36.552Z,60.80
2019-04-07T22:58:09.593Z,60.90
2019-04-07T23:00:42.412Z,61.70
2019-04-07T23:03:14.196Z,61.00
2019-04-07T23:05:47.007Z,61.30
2019-04-07T23:08:18.885Z,61.50
2019-04-07T23:10:50.964Z,61.90
2019-04-07T23:13:23.784Z,62.30
2019-04-07T23:16:07.131Z,62.90
2019-04-07T23:18:29.709Z,63.50
2019-04-07T23:21:01.491Z,64.20
2019-04-07T23:23:34.472Z,64.60
2019-04-07T23:26:06.254Z,65.00
2019-04-07T23:28:37.974Z,65.10
2019-04-07T23:31:09.730Z,65.30
2019-04-07T23:33:41.760Z,65.40
2019-04-07T23:36:13.702Z,65.60
2019-04-07T23:38:45.426Z,65.70
2019-04-07T23:41:18.022Z,66.00
2019-04-07T23:43:50.574Z,66.40
2019-04-07T23:46:25.041Z,66.90
2019-04-07T23:48:56.006Z,67.30
2019-04-07T23:51:28.716Z,67.90
2019-04-07T23:54:10.983Z,68.30
2019-04-07T23:56:43.615Z,68.60
2019-04-07T23:59:15.241Z,68.80
